createdAt,value
2023-08-12T00:00:45.270Z,10.30
2023-08-12T00:03:34.429Z,10.60
2023-08-12T00:06:21.498Z,10.90
2023-08-12T00:09:09.116Z,10.40
2023-08-12T00:11:55.778Z,11.40
2023-08-12T00:14:42.628Z,11.10
2023-08-12T00:17:30.430Z,10.30
2023-08-12T00:20:17.706Z,11.10
2023-08-12T00:23:05.320Z,10.90
2023-08-12T00:25:52.537Z,11.20
2023-08-12T00:28:39.254Z,10.10
2023-08-12T00:31:26.353Z,10.90
2023-08-12T00:34:13.478Z,13.90
2023-08-12T00:37:00.529Z,11.20
2023-08-12T00:39:48.033Z,10.80
2023-08-12T00:42:34.816Z,12.50
2023-08-12T00:45:21.947Z,12.60
2023-08-12T00:48:11.781Z,14.80
2023-08-12T00:51:00.496Z,11.50
2023-08-12T00:53:48.174Z,10.80
2023-08-12T00:56:36.697Z,11.00
2023-08-12T00:59:23.866Z,10.00
2023-08-12T01:02:17.344Z,10.90
2023-08-12T01:05:04.334Z,10.80
2023-08-12T01:07:51.527Z,10.80
2023-08-12T01:10:40.974Z,13.70
2023-08-12T01:13:33.781Z,12.20
2023-08-12T01:16:21.583Z,11.40
2023-08-12T01:19:11.070Z,13.40
2023-08-12T01:22:01.565Z,11.70
2023-08-12T01:24:48.727Z,11.90
2023-08-12T01:27:39.268Z,11.20
2023-08-12T01:30:26.181Z,10.70
2023-08-12T01:33:20.784Z,16.00
2023-08-12T01:36:14.480Z,13.50
2023-08-12T01:39:04.940Z,10.40
2023-08-12T01:41:52.496Z,9.80
2023-08-12T01:44:41.161Z,10.40
2023-08-12T01:47:28.343Z,10.30
2023-08-12T01:50:16.695Z,10.10
2023-08-12T01:53:03.690Z,11.60
2023-08-12T01:55:52.411Z,11.10
2023-08-12T01:58:39.259Z,11.40
2023-08-12T02:01:27.303Z,12.20
2023-08-12T02:04:14.374Z,13.60
2023-08-12T02:07:01.369Z,10.60
2023-08-12T02:09:49.040Z,13.30
2023-08-12T02:12:36.980Z,10.40
2023-08-12T02:15:24.079Z,11.10
2023-08-12T02:18:11.425Z,12.90
2023-08-12T02:20:58.631Z,10.70
2023-08-12T02:23:45.557Z,11.50
2023-08-12T02:26:32.844Z,11.40
2023-08-12T02:29:19.922Z,15.40
2023-08-12T02:32:07.158Z,11.70
2023-08-12T02:34:54.869Z,12.40
2023-08-12T02:37:41.767Z,11.10
2023-08-12T02:40:28.605Z,14.50
2023-08-12T02:43:15.673Z,11.30
2023-08-12T02:46:04.220Z,12.00
2023-08-12T02:48:51.604Z,11.10
2023-08-12T02:51:39.803Z,11.80
2023-08-12T02:54:26.303Z,13.00
2023-08-12T02:57:14.251Z,8.10
2023-08-12T03:00:01.376Z,10.80
2023-08-12T03:02:49.355Z,13.00
2023-08-12T03:05:36.404Z,11.30
2023-08-12T03:08:25.183Z,15.10
2023-08-12T03:11:12.858Z,12.30
2023-08-12T03:14:00.350Z,11.80
2023-08-12T03:16:47.816Z,10.70
2023-08-12T03:19:35.901Z,11.40
2023-08-12T03:22:22.697Z,10.30
2023-08-12T03:25:10.026Z,16.00
2023-08-12T03:27:58.117Z,13.00
2023-08-12T03:30:53.439Z,15.20
2023-08-12T03:33:42.601Z,11.50
2023-08-12T03:36:30.059Z,11.00
2023-08-12T03:39:17.302Z,13.70
2023-08-12T03:42:04.606Z,11.30
2023-08-12T03:44:51.594Z,14.40
2023-08-12T03:47:39.367Z,13.90
2023-08-12T03:50:27.438Z,15.00
2023-08-12T03:53:14.884Z,13.60
2023-08-12T03:56:02.834Z,11.70
2023-08-12T03:58:51.348Z,13.40
2023-08-12T04:01:38.980Z,13.00
2023-08-12T04:04:26.978Z,12.30
2023-08-12T04:07:14.813Z,11.70
2023-08-12T04:10:03.362Z,14.20
2023-08-12T04:12:50.641Z,12.80
2023-08-12T04:15:38.683Z,12.10
2023-08-12T04:18:25.723Z,15.10
2023-08-12T04:21:13.765Z,14.60
2023-08-12T04:24:00.752Z,14.90
2023-08-12T04:26:47.900Z,17.40
2023-08-12T04:29:37.169Z,12.90
2023-08-12T04:32:24.855Z,17.40
2023-08-12T04:35:11.900Z,13.00
2023-08-12T04:38:01.482Z,16.90
2023-08-12T04:40:48.665Z,15.60
2023-08-12T04:43:36.396Z,14.40
2023-08-12T04:46:23.875Z,16.50
2023-08-12T04:49:11.703Z,14.60
2023-08-12T04:51:59.805Z,14.00
2023-08-12T04:54:47.644Z,15.00
2023-08-12T04:57:35.036Z,13.80
2023-08-12T05:00:23.180Z,15.70
2023-08-12T05:03:10.095Z,19.90
2023-08-12T05:05:57.890Z,12.80
2023-08-12T05:08:46.990Z,14.00
2023-08-12T05:11:34.726Z,14.20
2023-08-12T05:14:22.126Z,17.20
2023-08-12T05:17:09.540Z,13.90
2023-08-12T05:19:57.325Z,13.00
2023-08-12T05:22:45.542Z,13.10
2023-08-12T05:25:32.985Z,13.30
2023-08-12T05:28:19.900Z,12.50
2023-08-12T05:31:07.156Z,16.40
2023-08-12T05:33:55.682Z,14.90
2023-08-12T05:36:42.512Z,13.90
2023-08-12T05:39:30.387Z,23.20
2023-08-12T05:42:17.074Z,15.00
2023-08-12T05:45:06.662Z,12.40
2023-08-12T05:47:54.996Z,14.30
2023-08-12T05:50:41.943Z,13.70
2023-08-12T05:53:28.735Z,16.90
2023-08-12T05:56:16.708Z,13.50
2023-08-12T05:59:03.854Z,13.90
2023-08-12T06:01:51.376Z,12.50
2023-08-12T06:04:37.965Z,15.20
2023-08-12T06:07:25.681Z,12.50
2023-08-12T06:10:12.243Z,14.60
2023-08-12T06:12:59.581Z,16.30
2023-08-12T06:15:46.448Z,13.70
2023-08-12T06:18:34.388Z,15.00
2023-08-12T06:21:21.180Z,15.10
2023-08-12T06:26:54.925Z,14.50
2023-08-12T06:29:41.887Z,15.60
2023-08-12T06:32:29.129Z,13.50
2023-08-12T06:35:16.513Z,12.90
2023-08-12T06:38:04.329Z,11.00
2023-08-12T06:40:51.687Z,12.70
2023-08-12T06:43:38.503Z,15.20
2023-08-12T06:46:26.656Z,13.20
2023-08-12T06:49:13.907Z,11.60
2023-08-12T06:52:00.698Z,11.20
2023-08-12T06:54:47.872Z,11.30
2023-08-12T06:57:35.024Z,17.40
2023-08-12T07:00:21.920Z,10.00
2023-08-12T07:03:10.233Z,11.70
2023-08-12T07:05:57.538Z,10.20
2023-08-12T07:08:44.429Z,9.80
2023-08-12T07:11:31.211Z,10.90
2023-08-12T07:14:18.722Z,16.60
2023-08-12T07:17:06.130Z,11.30
2023-08-12T07:19:53.667Z,8.10
2023-08-12T07:22:40.684Z,15.00
2023-08-12T07:25:28.494Z,10.20
2023-08-12T07:28:15.293Z,7.60
2023-08-12T07:31:05.071Z,7.30
2023-08-12T07:33:52.226Z,8.40
2023-08-12T07:36:39.830Z,7.00
2023-08-12T07:39:27.326Z,6.90
2023-08-12T07:42:15.252Z,7.80
2023-08-12T07:45:02.312Z,6.60
2023-08-12T07:47:50.468Z,6.50
2023-08-12T07:50:37.516Z,9.30
2023-08-12T07:53:24.474Z,7.50
2023-08-12T07:56:11.549Z,6.70
2023-08-12T07:58:58.932Z,8.80
2023-08-12T08:01:46.253Z,7.40
2023-08-12T08:04:33.441Z,7.30
2023-08-12T08:07:20.209Z,6.70
2023-08-12T08:10:07.259Z,6.50
2023-08-12T08:12:54.585Z,6.40
2023-08-12T08:15:42.099Z,4.80
2023-08-12T08:18:28.832Z,5.90
2023-08-12T08:21:16.378Z,6.40
2023-08-12T08:24:03.368Z,5.90
2023-08-12T08:26:50.523Z,5.40
2023-08-12T08:29:37.310Z,4.70
2023-08-12T08:32:24.648Z,3.50
2023-08-12T08:35:11.605Z,6.30
2023-08-12T08:37:59.686Z,4.60
2023-08-12T08:40:46.568Z,4.00
2023-08-12T08:43:36.676Z,4.40
2023-08-12T08:46:24.016Z,4.80
2023-08-12T08:49:13.263Z,4.50
2023-08-12T08:52:00.280Z,4.70
2023-08-12T08:54:48.352Z,4.40
2023-08-12T08:57:45.984Z,5.30
2023-08-12T09:00:36.494Z,5.20
2023-08-12T09:03:23.328Z,4.00
2023-08-12T09:06:10.987Z,3.60
2023-08-12T09:08:57.481Z,4.80
2023-08-12T09:11:46.985Z,3.60
2023-08-12T09:14:34.645Z,4.00
2023-08-12T09:17:21.919Z,3.30
2023-08-12T09:20:14.546Z,3.20
2023-08-12T09:23:01.669Z,3.70
2023-08-12T09:25:48.711Z,4.60
2023-08-12T09:28:37.762Z,3.50
2023-08-12T09:31:26.243Z,3.40
2023-08-12T09:34:13.452Z,5.20
2023-08-12T09:37:00.878Z,3.30
2023-08-12T09:39:50.817Z,3.00
2023-08-12T09:42:45.161Z,3.70
2023-08-12T09:45:33.101Z,2.90
2023-08-12T09:48:19.985Z,3.30
2023-08-12T09:51:07.118Z,3.80
2023-08-12T09:53:53.933Z,5.60
2023-08-12T09:56:41.715Z,5.40
2023-08-12T09:59:32.171Z,2.90
2023-08-12T10:02:19.990Z,3.40
2023-08-12T10:05:07.970Z,4.30
2023-08-12T10:07:55.270Z,2.90
2023-08-12T10:10:42.382Z,4.20
2023-08-12T10:13:29.904Z,2.30
2023-08-12T10:16:17.210Z,2.80
2023-08-12T10:19:06.755Z,2.50
2023-08-12T10:21:56.150Z,2.90
2023-08-12T10:24:44.466Z,4.50
2023-08-12T10:27:31.108Z,2.50
2023-08-12T10:30:18.408Z,2.00
2023-08-12T10:33:05.693Z,6.50
2023-08-12T10:35:56.890Z,5.40
2023-08-12T10:38:45.125Z,2.50
2023-08-12T10:41:37.123Z,3.00
2023-08-12T10:44:27.755Z,2.20
2023-08-12T10:50:02.835Z,2.20
2023-08-12T10:52:54.517Z,1.90
2023-08-12T10:55:41.543Z,1.80
2023-08-12T10:58:31.044Z,2.20
2023-08-12T11:01:19.422Z,2.30
2023-08-12T11:04:17.513Z,3.00
2023-08-12T11:07:15.605Z,2.70
2023-08-12T11:10:07.276Z,2.00
2023-08-12T11:12:53.963Z,2.30
2023-08-12T11:15:47.369Z,2.00
2023-08-12T11:18:34.138Z,1.90
2023-08-12T11:21:21.175Z,2.60
2023-08-12T11:24:07.775Z,2.60
2023-08-12T11:26:56.428Z,2.40
2023-08-12T11:29:43.497Z,1.90
2023-08-12T11:32:31.519Z,3.10
2023-08-12T11:35:19.764Z,2.50
2023-08-12T11:38:08.529Z,2.00
2023-08-12T11:40:55.195Z,2.40
2023-08-12T11:43:42.325Z,5.40
2023-08-12T11:46:29.170Z,3.50
2023-08-12T11:49:17.057Z,2.00
2023-08-12T11:52:04.556Z,3.30
2023-08-12T11:54:52.195Z,2.00
2023-08-12T11:57:40.498Z,2.20
2023-08-12T12:00:27.908Z,2.90
2023-08-12T12:03:14.984Z,1.60
2023-08-12T12:06:04.133Z,2.20
2023-08-12T12:08:50.826Z,1.70
2023-08-12T12:11:38.771Z,2.50
2023-08-12T12:14:25.859Z,1.60
2023-08-12T12:17:14.591Z,1.90
2023-08-12T12:20:02.208Z,1.70
2023-08-12T12:22:49.700Z,2.40
2023-08-12T12:25:36.324Z,1.60
2023-08-12T12:28:23.748Z,2.00
2023-08-12T12:31:10.701Z,4.10
2023-08-12T12:33:57.673Z,4.00
2023-08-12T12:36:44.458Z,1.60
2023-08-12T12:39:32.574Z,2.40
2023-08-12T12:42:19.328Z,3.70
2023-08-12T12:45:06.487Z,1.30
2023-08-12T12:47:53.530Z,2.90
2023-08-12T12:50:40.674Z,1.90
2023-08-12T12:53:27.106Z,1.80
2023-08-12T12:56:14.938Z,2.00
2023-08-12T12:59:02.642Z,2.60
2023-08-12T13:01:49.765Z,3.50
2023-08-12T13:04:36.940Z,1.50
2023-08-12T13:07:23.834Z,2.20
2023-08-12T13:10:11.025Z,8.50
2023-08-12T13:12:58.460Z,2.80
2023-08-12T13:15:45.752Z,2.80
2023-08-12T13:18:33.178Z,1.80
2023-08-12T13:21:19.764Z,2.20
2023-08-12T13:24:06.891Z,3.80
2023-08-12T13:26:55.795Z,1.70
2023-08-12T13:29:43.033Z,1.80
2023-08-12T13:32:29.760Z,1.80
2023-08-12T13:35:16.901Z,1.90
2023-08-12T13:38:04.394Z,1.80
2023-08-12T13:40:51.931Z,5.10
2023-08-12T13:43:38.434Z,1.50
2023-08-12T13:46:25.458Z,1.50
2023-08-12T13:49:12.926Z,1.50
2023-08-12T13:52:00.776Z,2.80
2023-08-12T13:54:47.357Z,2.20
2023-08-12T13:57:35.168Z,1.90
2023-08-12T14:00:21.927Z,3.20
2023-08-12T14:03:09.679Z,2.70
2023-08-12T14:05:56.649Z,1.80
2023-08-12T14:08:43.581Z,1.80
2023-08-12T14:11:30.097Z,2.00
2023-08-12T14:14:17.515Z,6.50
2023-08-12T14:17:04.221Z,1.90
2023-08-12T14:19:59.395Z,1.80
2023-08-12T14:22:46.557Z,2.00
2023-08-12T14:25:33.977Z,3.70
2023-08-12T14:28:20.824Z,1.30
2023-08-12T14:31:07.583Z,1.70
2023-08-12T14:33:54.689Z,2.30
2023-08-12T14:36:41.664Z,2.30
2023-08-12T14:39:28.563Z,1.80
2023-08-12T14:42:15.015Z,2.50
2023-08-12T14:45:01.993Z,1.70
2023-08-12T14:47:48.959Z,3.40
2023-08-12T14:50:35.748Z,1.70
2023-08-12T14:53:22.206Z,2.10
2023-08-12T14:56:09.327Z,1.80
2023-08-12T14:58:55.802Z,2.70
2023-08-12T15:01:42.695Z,2.10
2023-08-12T15:04:30.513Z,2.60
2023-08-12T15:07:21.220Z,2.60
2023-08-12T15:10:08.261Z,1.80
2023-08-12T15:12:54.888Z,1.40
2023-08-12T15:15:51.929Z,1.60
2023-08-12T15:18:38.834Z,1.70
2023-08-12T15:21:25.573Z,1.30
2023-08-12T15:24:12.553Z,1.30
2023-08-12T15:26:59.205Z,1.70
2023-08-12T15:29:45.983Z,2.80
2023-08-12T15:32:33.151Z,1.10
2023-08-12T15:35:20.256Z,6.80
2023-08-12T15:38:07.545Z,3.20
2023-08-12T15:40:54.363Z,3.10
2023-08-12T15:43:42.070Z,3.10
2023-08-12T15:46:28.814Z,2.80
2023-08-12T15:49:15.755Z,4.50
2023-08-12T15:52:02.547Z,8.70
2023-08-12T15:54:49.330Z,3.30
2023-08-12T15:57:36.573Z,2.10
2023-08-12T16:00:24.018Z,3.70
2023-08-12T16:03:11.375Z,3.50
2023-08-12T16:06:01.893Z,2.40
2023-08-12T16:09:00.755Z,2.20
2023-08-12T16:11:55.459Z,2.60
2023-08-12T16:14:42.277Z,2.70
2023-08-12T16:17:28.749Z,2.30
2023-08-12T16:20:15.716Z,2.10
2023-08-12T16:23:02.696Z,1.70
2023-08-12T16:25:49.493Z,6.50
2023-08-12T16:28:36.597Z,5.40
2023-08-12T16:31:24.463Z,22.80
2023-08-12T16:34:11.332Z,13.60
2023-08-12T16:37:14.686Z,3.60
2023-08-12T16:40:05.503Z,2.20
2023-08-12T16:42:52.586Z,1.80
2023-08-12T16:45:39.459Z,2.00
2023-08-12T16:48:26.428Z,4.10
2023-08-12T16:51:13.679Z,5.10
2023-08-12T16:54:01.184Z,7.80
2023-08-12T16:56:47.957Z,2.70
2023-08-12T16:59:35.005Z,3.40
2023-08-12T17:02:21.397Z,4.00
2023-08-12T17:05:08.560Z,2.60
2023-08-12T17:07:55.571Z,4.40
2023-08-12T17:10:42.399Z,5.60
2023-08-12T17:13:29.340Z,3.30
2023-08-12T17:16:16.279Z,2.50
2023-08-12T17:19:03.036Z,2.30
2023-08-12T17:21:49.627Z,3.00
2023-08-12T17:24:36.284Z,3.70
2023-08-12T17:27:23.057Z,2.40
2023-08-12T17:30:09.609Z,5.30
2023-08-12T17:32:56.348Z,3.00
2023-08-12T17:35:43.774Z,2.70
2023-08-12T17:38:30.797Z,3.30
2023-08-12T17:41:17.528Z,3.10
2023-08-12T17:44:04.541Z,3.40
2023-08-12T17:46:51.357Z,5.20
2023-08-12T17:49:38.515Z,4.10
2023-08-12T17:52:25.284Z,2.80
2023-08-12T17:55:12.131Z,2.80
2023-08-12T17:57:59.162Z,6.70
2023-08-12T18:00:46.075Z,2.40
2023-08-12T18:03:33.173Z,3.50
2023-08-12T18:06:19.843Z,3.20
2023-08-12T18:09:09.374Z,3.90
2023-08-12T18:11:56.487Z,3.80
2023-08-12T18:14:43.105Z,3.40
2023-08-12T18:17:30.185Z,5.50
2023-08-12T18:20:17.546Z,8.50
2023-08-12T18:23:04.318Z,4.00
2023-08-12T18:25:51.049Z,6.00
2023-08-12T18:28:38.753Z,4.30
2023-08-12T18:31:25.300Z,7.70
2023-08-12T18:34:11.816Z,4.90
2023-08-12T18:36:58.714Z,8.30
2023-08-12T18:39:46.162Z,5.50
2023-08-12T18:42:32.924Z,2.90
2023-08-12T18:45:20.183Z,3.10
2023-08-12T18:48:07.336Z,9.40
2023-08-12T18:50:54.206Z,5.30
2023-08-12T18:53:40.981Z,5.60
2023-08-12T18:56:27.898Z,4.60
2023-08-12T18:59:14.751Z,8.90
2023-08-12T19:02:01.381Z,3.90
2023-08-12T19:04:48.271Z,4.00
2023-08-12T19:07:35.332Z,3.20
2023-08-12T19:10:22.084Z,3.10
2023-08-12T19:13:09.167Z,3.40
2023-08-12T19:15:57.072Z,4.20
2023-08-12T19:18:43.419Z,5.40
2023-08-12T19:21:30.931Z,3.70
2023-08-12T19:24:17.607Z,4.50
2023-08-12T19:27:04.606Z,4.00
2023-08-12T19:29:51.298Z,4.90
2023-08-12T19:32:51.370Z,4.70
2023-08-12T19:35:37.985Z,4.00
2023-08-12T19:38:24.903Z,4.20
2023-08-12T19:41:11.845Z,4.20
2023-08-12T19:44:00.347Z,5.00
2023-08-12T19:46:47.547Z,5.60
2023-08-12T19:49:34.525Z,4.70
2023-08-12T19:52:21.150Z,3.20
2023-08-12T19:55:08.335Z,4.70
2023-08-12T19:57:55.001Z,5.00
2023-08-12T20:00:42.012Z,7.70
2023-08-12T20:03:29.325Z,4.50
2023-08-12T20:06:16.200Z,4.80
2023-08-12T20:09:03.078Z,4.70
2023-08-12T20:11:49.840Z,4.20
2023-08-12T20:14:36.297Z,4.60
2023-08-12T20:17:23.113Z,4.00
2023-08-12T20:20:13.424Z,4.60
2023-08-12T20:23:05.961Z,4.60
2023-08-12T20:25:53.540Z,7.50
2023-08-12T20:28:40.703Z,4.40
2023-08-12T20:31:27.168Z,5.00
2023-08-12T20:34:14.145Z,10.80
2023-08-12T20:37:00.981Z,6.60
2023-08-12T20:39:47.791Z,6.00
2023-08-12T20:42:34.285Z,5.40
2023-08-12T20:45:21.840Z,6.60
2023-08-12T20:48:09.087Z,9.20
2023-08-12T20:50:56.276Z,6.40
2023-08-12T20:53:42.721Z,8.40
2023-08-12T20:56:29.606Z,10.10
2023-08-12T20:59:16.959Z,6.30
2023-08-12T21:02:03.732Z,6.30
2023-08-12T21:04:51.102Z,6.40
2023-08-12T21:07:37.943Z,6.80
2023-08-12T21:10:24.644Z,9.00
2023-08-12T21:13:12.210Z,8.60
2023-08-12T21:15:58.701Z,8.10
2023-08-12T21:18:45.408Z,8.80
2023-08-12T21:21:31.961Z,7.60
2023-08-12T21:24:19.111Z,8.20
2023-08-12T21:27:05.929Z,9.50
2023-08-12T21:29:52.848Z,11.80
2023-08-12T21:32:39.777Z,11.80
2023-08-12T21:35:28.419Z,7.80
2023-08-12T21:38:14.977Z,7.90
2023-08-12T21:41:01.824Z,7.70
2023-08-12T21:43:48.519Z,9.10
2023-08-12T21:46:35.246Z,10.50
2023-08-12T21:49:22.283Z,9.10
2023-08-12T21:52:09.058Z,8.80
2023-08-12T21:54:55.902Z,8.90
2023-08-12T21:57:42.763Z,9.30
2023-08-12T22:00:29.504Z,9.00
2023-08-12T22:03:16.264Z,10.40
2023-08-12T22:06:03.046Z,8.60
2023-08-12T22:08:49.765Z,9.00
2023-08-12T22:11:36.179Z,8.70
2023-08-12T22:14:23.039Z,9.10
2023-08-12T22:17:09.631Z,8.50
2023-08-12T22:19:56.358Z,8.50
2023-08-12T22:22:43.450Z,8.80
2023-08-12T22:25:30.380Z,10.80
2023-08-12T22:28:19.689Z,9.70
2023-08-12T22:31:06.657Z,11.20
2023-08-12T22:33:53.421Z,13.40
2023-08-12T22:36:42.071Z,13.50
2023-08-12T22:39:28.977Z,14.90
2023-08-12T22:42:16.030Z,13.30
2023-08-12T22:45:03.008Z,17.20
2023-08-12T22:47:49.653Z,14.50
2023-08-12T22:50:37.046Z,16.10
2023-08-12T22:53:23.596Z,14.40
2023-08-12T22:56:10.051Z,12.60
2023-08-12T22:58:59.000Z,11.30
2023-08-12T23:01:45.908Z,12.80
2023-08-12T23:04:32.836Z,11.90
2023-08-12T23:07:19.660Z,11.00
2023-08-12T23:10:06.508Z,12.90
2023-08-12T23:12:53.689Z,11.60
2023-08-12T23:15:40.547Z,10.20
2023-08-12T23:18:27.533Z,12.20
2023-08-12T23:21:13.966Z,10.90
2023-08-12T23:24:01.040Z,10.40
2023-08-12T23:26:47.777Z,10.50
2023-08-12T23:29:34.681Z,9.50
2023-08-12T23:32:22.747Z,11.00
2023-08-12T23:35:09.873Z,9.90
2023-08-12T23:37:56.505Z,13.10
2023-08-12T23:40:43.986Z,9.40
2023-08-12T23:43:30.912Z,9.20
2023-08-12T23:46:17.614Z,9.10
2023-08-12T23:49:04.517Z,9.10
2023-08-12T23:51:51.036Z,7.90
2023-08-12T23:54:38.078Z,9.30
2023-08-12T23:57:24.556Z,10.40
